sensor_id;sensor_type;location;lat;lon;timestamp;pressure;altitude;pressure_sealevel;temperature;humidity
72118;BME280;59992;47.490;8.736;2023-12-07T00:01:54;96927.55;;;1.93;99.52
72118;BME280;59992;47.490;8.736;2023-12-07T00:04:42;96921.30;;;1.81;99.40
72118;BME280;59992;47.490;8.736;2023-12-07T00:07:31;96934.01;;;1.87;99.95
72118;BME280;59992;47.490;8.736;2023-12-07T00:10:19;96934.54;;;1.89;99.98
72118;BME280;59992;47.490;8.736;2023-12-07T00:13:07;96934.51;;;1.88;99.94
72118;BME280;59992;47.490;8.736;2023-12-07T00:15:55;96935.05;;;1.89;100.00
72118;BME280;59992;47.490;8.736;2023-12-07T00:18:43;96934.47;;;1.87;99.85
72118;BME280;59992;47.490;8.736;2023-12-07T00:21:32;96932.67;;;1.83;100.00
72118;BME280;59992;47.490;8.736;2023-12-07T00:24:20;96932.23;;;1.84;100.00
72118;BME280;59992;47.490;8.736;2023-12-07T00:27:08;96930.01;;;1.86;99.99
72118;BME280;59992;47.490;8.736;2023-12-07T00:29:56;96935.23;;;1.81;100.00
72118;BME280;59992;47.490;8.736;2023-12-07T00:32:44;96936.08;;;1.80;100.00
72118;BME280;59992;47.490;8.736;2023-12-07T00:35:33;96932.02;;;1.79;100.00
72118;BME280;59992;47.490;8.736;2023-12-07T00:38:21;96933.64;;;1.77;100.00
72118;BME280;59992;47.490;8.736;2023-12-07T00:41:10;96931.73;;;1.76;100.00
72118;BME280;59992;47.490;8.736;2023-12-07T00:43:58;96929.00;;;1.76;100.00
72118;BME280;59992;47.490;8.736;2023-12-07T00:46:46;96923.10;;;1.76;100.00
72118;BME280;59992;47.490;8.736;2023-12-07T00:49:38;96921.76;;;1.78;100.00
72118;BME280;59992;47.490;8.736;2023-12-07T00:52:29;96918.95;;;1.77;100.00
72118;BME280;59992;47.490;8.736;2023-12-07T00:55:17;96918.19;;;1.78;100.00
72118;BME280;59992;47.490;8.736;2023-12-07T00:58:05;96925.89;;;1.78;100.00
72118;BME280;59992;47.490;8.736;2023-12-07T01:00:53;96925.89;;;1.78;100.00
72118;BME280;59992;47.490;8.736;2023-12-07T01:03:41;96925.55;;;1.73;100.00
72118;BME280;59992;47.490;8.736;2023-12-07T01:06:30;96936.32;;;1.79;100.00
72118;BME280;59992;47.490;8.736;2023-12-07T01:09:18;96934.42;;;1.79;100.00
72118;BME280;59992;47.490;8.736;2023-12-07T01:12:06;96936.91;;;1.78;100.00
72118;BME280;59992;47.490;8.736;2023-12-07T01:14:54;96936.80;;;1.78;100.00
72118;BME280;59992;47.490;8.736;2023-12-07T01:17:42;96935.99;;;1.77;100.00
72118;BME280;59992;47.490;8.736;2023-12-07T01:20:30;96938.94;;;1.76;100.00
72118;BME280;59992;47.490;8.736;2023-12-07T01:23:19;96937.35;;;1.77;100.00
72118;BME280;59992;47.490;8.736;2023-12-07T01:26:07;96939.66;;;1.77;99.98
72118;BME280;59992;47.490;8.736;2023-12-07T01:28:55;96939.71;;;1.74;99.94
72118;BME280;59992;47.490;8.736;2023-12-07T01:31:44;96945.45;;;1.70;100.00
72118;BME280;59992;47.490;8.736;2023-12-07T01:34:32;96944.66;;;1.68;100.00
72118;BME280;59992;47.490;8.736;2023-12-07T01:37:20;96948.63;;;1.68;100.00
72118;BME280;59992;47.490;8.736;2023-12-07T01:40:09;96950.09;;;1.66;100.00
72118;BME280;59992;47.490;8.736;2023-12-07T01:42:58;96948.20;;;1.65;100.00
72118;BME280;59992;47.490;8.736;2023-12-07T01:45:46;96950.88;;;1.65;100.00
72118;BME280;59992;47.490;8.736;2023-12-07T01:48:35;96953.58;;;1.63;99.90
72118;BME280;59992;47.490;8.736;2023-12-07T01:51:23;96963.06;;;1.57;99.94
72118;BME280;59992;47.490;8.736;2023-12-07T01:54:11;96964.92;;;1.53;99.89
72118;BME280;59992;47.490;8.736;2023-12-07T01:57:00;96965.20;;;1.50;100.00
72118;BME280;59992;47.490;8.736;2023-12-07T01:59:49;96966.23;;;1.48;99.96
72118;BME280;59992;47.490;8.736;2023-12-07T02:02:38;96966.19;;;1.42;99.48
72118;BME280;59992;47.490;8.736;2023-12-07T02:05:27;96968.77;;;1.38;99.38
72118;BME280;59992;47.490;8.736;2023-12-07T02:08:15;96967.88;;;1.33;99.63
72118;BME280;59992;47.490;8.736;2023-12-07T02:11:04;96965.68;;;1.30;99.64
72118;BME280;59992;47.490;8.736;2023-12-07T02:13:52;96969.55;;;1.26;99.79
72118;BME280;59992;47.490;8.736;2023-12-07T02:16:47;96968.55;;;1.22;100.00
72118;BME280;59992;47.490;8.736;2023-12-07T02:19:52;96967.58;;;1.22;100.00
72118;BME280;59992;47.490;8.736;2023-12-07T02:22:45;96964.38;;;1.24;100.00
72118;BME280;59992;47.490;8.736;2023-12-07T02:25:40;96961.12;;;1.23;100.00
72118;BME280;59992;47.490;8.736;2023-12-07T02:28:29;96962.09;;;1.22;100.00
72118;BME280;59992;47.490;8.736;2023-12-07T02:31:17;96955.58;;;1.21;100.00
72118;BME280;59992;47.490;8.736;2023-12-07T02:34:06;96959.83;;;1.22;100.00
72118;BME280;59992;47.490;8.736;2023-12-07T02:36:56;96956.04;;;1.24;100.00
72118;BME280;59992;47.490;8.736;2023-12-07T02:39:46;96960.37;;;1.24;100.00
72118;BME280;59992;47.490;8.736;2023-12-07T02:42:35;96958.58;;;1.20;100.00
72118;BME280;59992;47.490;8.736;2023-12-07T02:45:25;96955.44;;;1.18;99.74
72118;BME280;59992;47.490;8.736;2023-12-07T02:48:15;96959.08;;;1.08;99.81
72118;BME280;59992;47.490;8.736;2023-12-07T02:51:05;96962.61;;;1.05;100.00
72118;BME280;59992;47.490;8.736;2023-12-07T02:53:53;96962.17;;;1.00;100.00
72118;BME280;59992;47.490;8.736;2023-12-07T02:56:41;96960.16;;;0.97;100.00
72118;BME280;59992;47.490;8.736;2023-12-07T02:59:29;96959.17;;;0.96;100.00
72118;BME280;59992;47.490;8.736;2023-12-07T03:02:19;96959.06;;;0.94;100.00
72118;BME280;59992;47.490;8.736;2023-12-07T03:05:08;96959.66;;;0.86;99.82
72118;BME280;59992;47.490;8.736;2023-12-07T03:07:56;96962.27;;;0.81;100.00
72118;BME280;59992;47.490;8.736;2023-12-07T03:10:44;96964.13;;;0.78;100.00
72118;BME280;59992;47.490;8.736;2023-12-07T03:13:33;96961.69;;;0.77;100.00
72118;BME280;59992;47.490;8.736;2023-12-07T03:16:21;96959.38;;;0.73;100.00
72118;BME280;59992;47.490;8.736;2023-12-07T03:19:09;96956.92;;;0.76;100.00
72118;BME280;59992;47.490;8.736;2023-12-07T03:21:57;96957.66;;;0.78;100.00
72118;BME280;59992;47.490;8.736;2023-12-07T03:24:49;96955.89;;;0.84;100.00
72118;BME280;59992;47.490;8.736;2023-12-07T03:27:38;96952.80;;;0.88;100.00
72118;BME280;59992;47.490;8.736;2023-12-07T03:30:26;96952.73;;;0.91;100.00
72118;BME280;59992;47.490;8.736;2023-12-07T03:33:14;96953.36;;;0.92;100.00
72118;BME280;59992;47.490;8.736;2023-12-07T03:36:03;96956.25;;;0.96;100.00
72118;BME280;59992;47.490;8.736;2023-12-07T03:38:51;96956.64;;;1.00;100.00
72118;BME280;59992;47.490;8.736;2023-12-07T03:41:40;96958.02;;;1.02;100.00
72118;BME280;59992;47.490;8.736;2023-12-07T03:44:28;96958.31;;;1.03;100.00
72118;BME280;59992;47.490;8.736;2023-12-07T03:47:16;96953.95;;;1.02;100.00
72118;BME280;59992;47.490;8.736;2023-12-07T03:50:06;96952.32;;;1.00;100.00
72118;BME280;59992;47.490;8.736;2023-12-07T03:52:54;96947.87;;;0.98;100.00
72118;BME280;59992;47.490;8.736;2023-12-07T03:55:42;96949.95;;;0.95;100.00
72118;BME280;59992;47.490;8.736;2023-12-07T03:58:30;96950.34;;;0.87;99.95
72118;BME280;59992;47.490;8.736;2023-12-07T04:01:22;96953.89;;;0.79;99.96
72118;BME280;59992;47.490;8.736;2023-12-07T04:04:11;96953.38;;;0.73;100.00
72118;BME280;59992;47.490;8.736;2023-12-07T04:06:59;96953.09;;;0.69;99.97
72118;BME280;59992;47.490;8.736;2023-12-07T04:09:47;96954.86;;;0.62;99.80
72118;BME280;59992;47.490;8.736;2023-12-07T04:12:35;96951.09;;;0.55;99.44
72118;BME280;59992;47.490;8.736;2023-12-07T04:15:24;96954.88;;;0.46;99.45
72118;BME280;59992;47.490;8.736;2023-12-07T04:18:13;96958.67;;;0.39;99.21
72118;BME280;59992;47.490;8.736;2023-12-07T04:21:01;96962.38;;;0.30;99.37
72118;BME280;59992;47.490;8.736;2023-12-07T04:23:49;96966.80;;;0.24;99.85
72118;BME280;59992;47.490;8.736;2023-12-07T04:26:37;96966.49;;;0.16;100.00
72118;BME280;59992;47.490;8.736;2023-12-07T04:29:25;96969.27;;;0.13;100.00
72118;BME280;59992;47.490;8.736;2023-12-07T04:32:14;96970.46;;;0.09;100.00
72118;BME280;59992;47.490;8.736;2023-12-07T04:35:02;96966.34;;;0.02;100.00
72118;BME280;59992;47.490;8.736;2023-12-07T04:37:50;96973.18;;;0.05;100.00
72118;BME280;59992;47.490;8.736;2023-12-07T04:40:39;96974.22;;;0.01;100.00
72118;BME280;59992;47.490;8.736;2023-12-07T04:43:27;96967.51;;;-0.04;100.00
72118;BME280;59992;47.490;8.736;2023-12-07T04:46:15;96960.58;;;-0.07;100.00
72118;BME280;59992;47.490;8.736;2023-12-07T04:49:03;96963.70;;;-0.02;100.00
72118;BME280;59992;47.490;8.736;2023-12-07T04:51:52;96967.75;;;0.05;100.00
72118;BME280;59992;47.490;8.736;2023-12-07T04:54:40;96965.89;;;0.05;100.00
72118;BME280;59992;47.490;8.736;2023-12-07T04:57:29;96965.48;;;0.03;100.00
72118;BME280;59992;47.490;8.736;2023-12-07T05:00:18;96966.14;;;0.03;100.00
72118;BME280;59992;47.490;8.736;2023-12-07T05:03:06;96966.82;;;0.05;100.00
72118;BME280;59992;47.490;8.736;2023-12-07T05:05:54;96967.50;;;0.05;100.00
72118;BME280;59992;47.490;8.736;2023-12-07T05:08:43;96967.88;;;0.07;100.00
72118;BME280;59992;47.490;8.736;2023-12-07T05:11:31;96965.65;;;0.11;100.00
72118;BME280;59992;47.490;8.736;2023-12-07T05:14:19;96964.96;;;0.11;100.00
72118;BME280;59992;47.490;8.736;2023-12-07T05:17:08;96963.84;;;0.12;100.00
72118;BME280;59992;47.490;8.736;2023-12-07T05:19:57;96965.11;;;0.14;100.00
72118;BME280;59992;47.490;8.736;2023-12-07T05:22:45;96962.98;;;0.17;100.00
72118;BME280;59992;47.490;8.736;2023-12-07T05:25:33;96962.09;;;0.15;100.00
72118;BME280;59992;47.490;8.736;2023-12-07T05:28:22;96966.23;;;0.20;100.00
72118;BME280;59992;47.490;8.736;2023-12-07T05:31:16;96966.91;;;0.27;100.00
72118;BME280;59992;47.490;8.736;2023-12-07T05:34:04;96969.77;;;0.31;100.00
72118;BME280;59992;47.490;8.736;2023-12-07T05:36:53;96961.73;;;0.31;100.00
72118;BME280;59992;47.490;8.736;2023-12-07T05:39:42;96962.13;;;0.29;100.00
72118;BME280;59992;47.490;8.736;2023-12-07T05:42:30;96965.59;;;0.32;100.00
72118;BME280;59992;47.490;8.736;2023-12-07T05:45:18;96967.13;;;0.32;100.00
72118;BME280;59992;47.490;8.736;2023-12-07T05:48:07;96964.31;;;0.33;100.00
72118;BME280;59992;47.490;8.736;2023-12-07T05:50:55;96960.90;;;0.35;100.00
72118;BME280;59992;47.490;8.736;2023-12-07T05:53:44;96966.58;;;0.35;100.00
72118;BME280;59992;47.490;8.736;2023-12-07T05:56:32;96967.64;;;0.37;100.00
72118;BME280;59992;47.490;8.736;2023-12-07T05:59:21;96964.84;;;0.39;100.00
72118;BME280;59992;47.490;8.736;2023-12-07T06:02:10;96968.55;;;0.38;100.00
72118;BME280;59992;47.490;8.736;2023-12-07T06:04:58;96964.64;;;0.39;100.00
72118;BME280;59992;47.490;8.736;2023-12-07T06:07:46;96966.06;;;0.38;100.00
72118;BME280;59992;47.490;8.736;2023-12-07T06:10:35;96967.17;;;0.39;100.00
72118;BME280;59992;47.490;8.736;2023-12-07T06:13:23;96974.25;;;0.41;100.00
72118;BME280;59992;47.490;8.736;2023-12-07T06:16:15;96973.20;;;0.39;100.00
72118;BME280;59992;47.490;8.736;2023-12-07T06:19:05;96971.36;;;0.39;100.00
72118;BME280;59992;47.490;8.736;2023-12-07T06:21:53;96968.48;;;0.37;100.00
72118;BME280;59992;47.490;8.736;2023-12-07T06:24:42;96965.85;;;0.41;100.00
72118;BME280;59992;47.490;8.736;2023-12-07T06:27:30;96963.60;;;0.44;100.00
72118;BME280;59992;47.490;8.736;2023-12-07T06:30:19;96966.32;;;0.47;100.00
72118;BME280;59992;47.490;8.736;2023-12-07T06:33:07;96968.91;;;0.49;100.00
72118;BME280;59992;47.490;8.736;2023-12-07T06:35:55;96971.86;;;0.50;100.00
72118;BME280;59992;47.490;8.736;2023-12-07T06:38:44;96973.79;;;0.50;100.00
72118;BME280;59992;47.490;8.736;2023-12-07T06:41:32;96976.19;;;0.53;100.00
72118;BME280;59992;47.490;8.736;2023-12-07T06:44:21;96980.96;;;0.55;100.00
72118;BME280;59992;47.490;8.736;2023-12-07T06:47:09;96978.38;;;0.57;100.00
72118;BME280;59992;47.490;8.736;2023-12-07T06:49:58;96976.30;;;0.59;100.00
72118;BME280;59992;47.490;8.736;2023-12-07T06:52:47;96979.30;;;0.58;100.00
72118;BME280;59992;47.490;8.736;2023-12-07T06:55:35;96976.88;;;0.59;100.00
72118;BME280;59992;47.490;8.736;2023-12-07T06:58:23;96981.23;;;0.61;100.00
72118;BME280;59992;47.490;8.736;2023-12-07T07:01:12;96986.00;;;0.60;100.00
72118;BME280;59992;47.490;8.736;2023-12-07T07:04:01;96985.72;;;0.58;100.00
72118;BME280;59992;47.490;8.736;2023-12-07T07:06:49;96986.13;;;0.59;100.00
72118;BME280;59992;47.490;8.736;2023-12-07T07:09:38;96982.31;;;0.61;100.00
72118;BME280;59992;47.490;8.736;2023-12-07T07:12:26;96983.16;;;0.64;100.00
72118;BME280;59992;47.490;8.736;2023-12-07T07:15:14;96987.70;;;0.67;100.00
72118;BME280;59992;47.490;8.736;2023-12-07T07:18:03;96984.84;;;0.63;100.00
72118;BME280;59992;47.490;8.736;2023-12-07T07:20:51;96984.52;;;0.58;100.00
72118;BME280;59992;47.490;8.736;2023-12-07T07:23:40;96986.28;;;0.49;100.00
72118;BME280;59992;47.490;8.736;2023-12-07T07:26:29;96983.27;;;0.51;100.00
72118;BME280;59992;47.490;8.736;2023-12-07T07:29:17;96979.82;;;0.52;100.00
72118;BME280;59992;47.490;8.736;2023-12-07T07:32:06;96981.71;;;0.43;100.00
72118;BME280;59992;47.490;8.736;2023-12-07T07:34:55;96974.53;;;0.43;100.00
72118;BME280;59992;47.490;8.736;2023-12-07T07:37:44;96976.80;;;0.47;100.00
72118;BME280;59992;47.490;8.736;2023-12-07T07:40:32;96978.00;;;0.54;100.00
72118;BME280;59992;47.490;8.736;2023-12-07T07:43:20;96976.42;;;0.58;100.00
72118;BME280;59992;47.490;8.736;2023-12-07T07:46:09;96983.68;;;0.61;100.00
72118;BME280;59992;47.490;8.736;2023-12-07T07:48:58;96978.57;;;0.61;100.00
72118;BME280;59992;47.490;8.736;2023-12-07T07:51:46;96971.72;;;0.65;100.00
72118;BME280;59992;47.490;8.736;2023-12-07T07:54:34;96967.27;;;0.65;100.00
72118;BME280;59992;47.490;8.736;2023-12-07T07:57:24;96966.76;;;0.65;100.00
72118;BME280;59992;47.490;8.736;2023-12-07T08:00:14;96967.80;;;0.68;100.00
72118;BME280;59992;47.490;8.736;2023-12-07T08:03:03;96966.46;;;0.70;100.00
72118;BME280;59992;47.490;8.736;2023-12-07T08:05:51;96961.77;;;0.68;100.00
72118;BME280;59992;47.490;8.736;2023-12-07T08:08:40;96960.20;;;0.64;100.00
72118;BME280;59992;47.490;8.736;2023-12-07T08:11:28;96969.34;;;0.64;100.00
72118;BME280;59992;47.490;8.736;2023-12-07T08:14:16;96973.60;;;0.59;99.77
72118;BME280;59992;47.490;8.736;2023-12-07T08:17:04;96968.54;;;0.56;99.53
72118;BME280;59992;47.490;8.736;2023-12-07T08:19:53;96968.21;;;0.52;99.45
72118;BME280;59992;47.490;8.736;2023-12-07T08:22:42;96963.33;;;0.51;99.53
72118;BME280;59992;47.490;8.736;2023-12-07T08:25:30;96965.20;;;0.50;99.52
72118;BME280;59992;47.490;8.736;2023-12-07T08:28:20;96964.38;;;0.51;99.55
72118;BME280;59992;47.490;8.736;2023-12-07T08:31:08;96961.52;;;0.53;99.28
72118;BME280;59992;47.490;8.736;2023-12-07T08:33:56;96961.78;;;0.57;99.31
72118;BME280;59992;47.490;8.736;2023-12-07T08:36:44;96959.31;;;0.58;99.88
72118;BME280;59992;47.490;8.736;2023-12-07T08:39:33;96959.95;;;0.64;100.00
72118;BME280;59992;47.490;8.736;2023-12-07T08:42:21;96956.05;;;0.68;100.00
72118;BME280;59992;47.490;8.736;2023-12-07T08:45:10;96949.34;;;0.74;100.00
72118;BME280;59992;47.490;8.736;2023-12-07T08:47:58;96949.47;;;0.78;99.71
72118;BME280;59992;47.490;8.736;2023-12-07T08:50:46;96940.56;;;0.86;99.14
72118;BME280;59992;47.490;8.736;2023-12-07T08:53:35;96939.34;;;0.88;98.96
72118;BME280;59992;47.490;8.736;2023-12-07T08:56:23;96939.84;;;0.85;99.08
72118;BME280;59992;47.490;8.736;2023-12-07T08:59:13;96937.71;;;0.93;98.57
72118;BME280;59992;47.490;8.736;2023-12-07T09:02:01;96936.80;;;0.99;98.51
72118;BME280;59992;47.490;8.736;2023-12-07T09:04:50;96942.28;;;1.01;98.28
72118;BME280;59992;47.490;8.736;2023-12-07T09:07:40;96944.67;;;1.07;98.65
72118;BME280;59992;47.490;8.736;2023-12-07T09:10:28;96949.23;;;1.04;97.30
72118;BME280;59992;47.490;8.736;2023-12-07T09:13:16;96954.84;;;1.11;97.78
72118;BME280;59992;47.490;8.736;2023-12-07T09:16:06;96970.67;;;1.15;97.16
72118;BME280;59992;47.490;8.736;2023-12-07T09:18:54;96972.33;;;1.22;96.86
72118;BME280;59992;47.490;8.736;2023-12-07T09:21:43;96978.84;;;1.25;95.81
72118;BME280;59992;47.490;8.736;2023-12-07T09:24:31;96968.88;;;1.33;95.81
72118;BME280;59992;47.490;8.736;2023-12-07T09:27:20;96961.90;;;1.35;95.24
72118;BME280;59992;47.490;8.736;2023-12-07T09:30:10;96955.59;;;1.39;95.74
72118;BME280;59992;47.490;8.736;2023-12-07T09:32:58;96941.02;;;1.34;95.90
72118;BME280;59992;47.490;8.736;2023-12-07T09:35:47;96936.71;;;1.50;95.64
72118;BME280;59992;47.490;8.736;2023-12-07T09:38:36;96929.11;;;1.56;94.51
72118;BME280;59992;47.490;8.736;2023-12-07T09:41:26;96929.50;;;1.66;95.05
72118;BME280;59992;47.490;8.736;2023-12-07T09:44:15;96937.15;;;1.69;94.48
72118;BME280;59992;47.490;8.736;2023-12-07T09:47:03;96938.53;;;1.73;92.90
72118;BME280;59992;47.490;8.736;2023-12-07T09:49:54;96944.52;;;1.76;92.52
72118;BME280;59992;47.490;8.736;2023-12-07T09:52:43;96941.70;;;1.78;93.01
72118;BME280;59992;47.490;8.736;2023-12-07T09:55:32;96940.55;;;1.81;92.26
72118;BME280;59992;47.490;8.736;2023-12-07T09:58:21;96934.83;;;1.80;92.27
72118;BME280;59992;47.490;8.736;2023-12-07T10:01:09;96895.59;;;1.54;92.50
72118;BME280;59992;47.490;8.736;2023-12-07T10:04:17;96928.91;;;1.76;92.99
72118;BME280;59992;47.490;8.736;2023-12-07T10:07:06;96923.05;;;1.85;94.53
72118;BME280;59992;47.490;8.736;2023-12-07T10:09:56;96921.59;;;2.02;94.13
72118;BME280;59992;47.490;8.736;2023-12-07T10:12:46;96921.44;;;2.15;92.77
72118;BME280;59992;47.490;8.736;2023-12-07T10:15:35;96918.40;;;2.24;93.79
72118;BME280;59992;47.490;8.736;2023-12-07T10:18:24;96913.02;;;2.38;91.82
72118;BME280;59992;47.490;8.736;2023-12-07T10:21:12;96904.48;;;2.50;91.58
72118;BME280;59992;47.490;8.736;2023-12-07T10:24:01;96889.33;;;2.47;89.40
72118;BME280;59992;47.490;8.736;2023-12-07T10:26:52;96888.10;;;2.46;90.65
72118;BME280;59992;47.490;8.736;2023-12-07T10:29:41;96877.60;;;2.59;90.59
72118;BME280;59992;47.490;8.736;2023-12-07T10:32:38;96863.27;;;2.63;90.35
72118;BME280;59992;47.490;8.736;2023-12-07T10:35:27;96859.30;;;2.67;90.46
72118;BME280;59992;47.490;8.736;2023-12-07T10:38:17;96862.08;;;2.73;90.33
72118;BME280;59992;47.490;8.736;2023-12-07T10:41:07;96861.66;;;2.67;89.79
72118;BME280;59992;47.490;8.736;2023-12-07T10:44:00;96858.98;;;2.69;90.31
72118;BME280;59992;47.490;8.736;2023-12-07T10:46:50;96856.45;;;2.78;90.19
72118;BME280;59992;47.490;8.736;2023-12-07T10:49:41;96860.35;;;2.87;89.75
72118;BME280;59992;47.490;8.736;2023-12-07T10:52:32;96858.68;;;2.94;89.21
72118;BME280;59992;47.490;8.736;2023-12-07T10:55:27;96859.40;;;2.98;88.36
72118;BME280;59992;47.490;8.736;2023-12-07T10:58:17;96862.50;;;2.97;87.23
72118;BME280;59992;47.490;8.736;2023-12-07T11:01:07;96864.51;;;2.97;88.99
72118;BME280;59992;47.490;8.736;2023-12-07T11:03:56;96866.24;;;3.01;90.58
72118;BME280;59992;47.490;8.736;2023-12-07T11:06:48;96865.23;;;3.01;89.75
72118;BME280;59992;47.490;8.736;2023-12-07T11:09:42;96866.73;;;3.00;87.18
72118;BME280;59992;47.490;8.736;2023-12-07T11:12:36;96864.34;;;2.92;87.10
72118;BME280;59992;47.490;8.736;2023-12-07T11:15:27;96861.77;;;2.87;87.50
72118;BME280;59992;47.490;8.736;2023-12-07T11:18:16;96857.02;;;2.86;87.29
72118;BME280;59992;47.490;8.736;2023-12-07T11:21:05;96848.85;;;2.90;87.76
72118;BME280;59992;47.490;8.736;2023-12-07T11:23:54;96842.39;;;2.92;87.53
72118;BME280;59992;47.490;8.736;2023-12-07T11:26:44;96835.35;;;2.90;86.53
72118;BME280;59992;47.490;8.736;2023-12-07T11:29:32;96834.35;;;2.78;86.20
72118;BME280;59992;47.490;8.736;2023-12-07T11:32:21;96830.89;;;2.71;85.93
72118;BME280;59992;47.490;8.736;2023-12-07T11:35:13;96823.35;;;2.69;87.16
72118;BME280;59992;47.490;8.736;2023-12-07T11:38:06;96817.95;;;2.67;87.15
72118;BME280;59992;47.490;8.736;2023-12-07T11:40:56;96810.62;;;2.67;87.76
72118;BME280;59992;47.490;8.736;2023-12-07T11:43:45;96800.78;;;2.65;87.21
72118;BME280;59992;47.490;8.736;2023-12-07T11:46:34;96792.70;;;2.68;87.88
72118;BME280;59992;47.490;8.736;2023-12-07T11:49:22;96784.00;;;2.76;88.41
72118;BME280;59992;47.490;8.736;2023-12-07T11:52:14;96777.92;;;2.83;88.75
72118;BME280;59992;47.490;8.736;2023-12-07T11:55:03;96776.09;;;2.87;88.05
72118;BME280;59992;47.490;8.736;2023-12-07T11:57:52;96768.42;;;2.91;87.23
72118;BME280;59992;47.490;8.736;2023-12-07T12:00:42;96751.20;;;2.83;87.10
72118;BME280;59992;47.490;8.736;2023-12-07T12:03:31;96763.17;;;2.91;87.18
72118;BME280;59992;47.490;8.736;2023-12-07T12:06:20;96764.02;;;2.92;86.69
72118;BME280;59992;47.490;8.736;2023-12-07T12:09:08;96757.00;;;2.92;87.47
72118;BME280;59992;47.490;8.736;2023-12-07T12:11:58;96749.43;;;2.95;88.47
72118;BME280;59992;47.490;8.736;2023-12-07T12:14:48;96746.20;;;2.94;87.62
72118;BME280;59992;47.490;8.736;2023-12-07T12:17:36;96739.58;;;2.97;87.91
72118;BME280;59992;47.490;8.736;2023-12-07T12:20:25;96733.58;;;3.00;87.65
72118;BME280;59992;47.490;8.736;2023-12-07T12:23:13;96731.58;;;3.05;87.95
72118;BME280;59992;47.490;8.736;2023-12-07T12:26:02;96732.10;;;3.11;88.43
72118;BME280;59992;47.490;8.736;2023-12-07T12:28:51;96726.04;;;3.10;86.85
72118;BME280;59992;47.490;8.736;2023-12-07T12:31:40;96723.82;;;3.11;86.38
72118;BME280;59992;47.490;8.736;2023-12-07T12:34:29;96719.93;;;3.06;85.44
72118;BME280;59992;47.490;8.736;2023-12-07T12:37:20;96709.30;;;3.02;85.11
72118;BME280;59992;47.490;8.736;2023-12-07T12:40:09;96708.59;;;3.00;84.69
72118;BME280;59992;47.490;8.736;2023-12-07T12:42:58;96708.10;;;2.99;85.19
72118;BME280;59992;47.490;8.736;2023-12-07T12:45:48;96705.50;;;2.99;85.60
72118;BME280;59992;47.490;8.736;2023-12-07T12:48:36;96707.45;;;2.99;86.36
72118;BME280;59992;47.490;8.736;2023-12-07T12:51:25;96711.98;;;3.00;86.85
72118;BME280;59992;47.490;8.736;2023-12-07T12:54:14;96710.13;;;2.98;85.47
72118;BME280;59992;47.490;8.736;2023-12-07T12:57:02;96715.71;;;3.00;85.53
72118;BME280;59992;47.490;8.736;2023-12-07T12:59:54;96720.40;;;3.06;84.98
72118;BME280;59992;47.490;8.736;2023-12-07T13:02:42;96722.43;;;3.08;84.92
72118;BME280;59992;47.490;8.736;2023-12-07T13:05:30;96718.86;;;3.12;85.47
72118;BME280;59992;47.490;8.736;2023-12-07T13:08:19;96714.08;;;3.11;85.74
72118;BME280;59992;47.490;8.736;2023-12-07T13:11:08;96707.52;;;3.04;84.48
72118;BME280;59992;47.490;8.736;2023-12-07T13:13:56;96705.86;;;2.97;84.97
72118;BME280;59992;47.490;8.736;2023-12-07T13:16:45;96710.77;;;2.99;86.41
72118;BME280;59992;47.490;8.736;2023-12-07T13:19:33;96710.20;;;3.01;86.29
72118;BME280;59992;47.490;8.736;2023-12-07T13:22:22;96703.50;;;3.00;84.80
72118;BME280;59992;47.490;8.736;2023-12-07T13:25:11;96697.20;;;2.98;85.72
72118;BME280;59992;47.490;8.736;2023-12-07T13:28:02;96707.55;;;3.02;84.51
72118;BME280;59992;47.490;8.736;2023-12-07T13:30:50;96702.67;;;3.00;84.95
72118;BME280;59992;47.490;8.736;2023-12-07T13:33:38;96705.23;;;2.93;84.98
72118;BME280;59992;47.490;8.736;2023-12-07T13:36:26;96704.55;;;2.83;85.15
72118;BME280;59992;47.490;8.736;2023-12-07T13:39:16;96701.09;;;2.78;85.21
72118;BME280;59992;47.490;8.736;2023-12-07T13:42:09;96701.10;;;2.66;85.24
72118;BME280;59992;47.490;8.736;2023-12-07T13:44:58;96698.63;;;2.64;85.36
72118;BME280;59992;47.490;8.736;2023-12-07T13:47:48;96702.23;;;2.68;85.36
72118;BME280;59992;47.490;8.736;2023-12-07T13:50:36;96713.91;;;2.67;85.31
72118;BME280;59992;47.490;8.736;2023-12-07T13:53:24;96719.30;;;2.65;85.07
72118;BME280;59992;47.490;8.736;2023-12-07T13:56:12;96706.55;;;2.64;85.74
72118;BME280;59992;47.490;8.736;2023-12-07T13:59:01;96692.16;;;2.65;84.67
72118;BME280;59992;47.490;8.736;2023-12-07T14:01:50;96679.45;;;2.58;84.85
72118;BME280;59992;47.490;8.736;2023-12-07T14:04:38;96671.60;;;2.52;85.29
72118;BME280;59992;47.490;8.736;2023-12-07T14:07:27;96663.70;;;2.53;85.86
72118;BME280;59992;47.490;8.736;2023-12-07T14:10:15;96663.48;;;2.54;85.74
72118;BME280;59992;47.490;8.736;2023-12-07T14:13:04;96666.67;;;2.55;86.64
72118;BME280;59992;47.490;8.736;2023-12-07T14:15:52;96658.73;;;2.58;86.09
72118;BME280;59992;47.490;8.736;2023-12-07T14:18:40;96651.20;;;2.62;85.92
72118;BME280;59992;47.490;8.736;2023-12-07T14:21:30;96654.07;;;2.62;85.62
72118;BME280;59992;47.490;8.736;2023-12-07T14:24:18;96650.95;;;2.61;85.91
72118;BME280;59992;47.490;8.736;2023-12-07T14:27:07;96642.08;;;2.53;85.22
72118;BME280;59992;47.490;8.736;2023-12-07T14:29:56;96635.36;;;2.47;84.93
72118;BME280;59992;47.490;8.736;2023-12-07T14:32:44;96641.89;;;2.43;85.47
72118;BME280;59992;47.490;8.736;2023-12-07T14:35:39;96638.23;;;2.35;86.27
72118;BME280;59992;47.490;8.736;2023-12-07T14:38:27;96627.92;;;2.33;86.20
72118;BME280;59992;47.490;8.736;2023-12-07T14:41:17;96627.57;;;2.27;86.71
72118;BME280;59992;47.490;8.736;2023-12-07T14:44:05;96614.79;;;2.22;87.70
72118;BME280;59992;47.490;8.736;2023-12-07T14:46:53;96608.17;;;2.20;87.00
72118;BME280;59992;47.490;8.736;2023-12-07T14:49:42;96602.06;;;2.09;86.92
72118;BME280;59992;47.490;8.736;2023-12-07T14:52:31;96597.30;;;1.93;88.20
72118;BME280;59992;47.490;8.736;2023-12-07T14:55:19;96592.20;;;1.88;87.70
72118;BME280;59992;47.490;8.736;2023-12-07T14:58:07;96594.77;;;1.77;88.49
72118;BME280;59992;47.490;8.736;2023-12-07T15:00:56;96585.73;;;1.64;89.49